Time;durP1;ratioP1;P1;durP2;ratioP2;P2;SDS_P1;SDS_P2;PMS_P1;PMS_P2;Temp;Humidity;BMP_temperature;BMP_pressure;BME280_temperature;BME280_humidity;BME280_pressure;Samples;Min_cycle;Max_cycle;Signal;HPM_P1;HPM_P2
2022/11/07 00:02:13;;;;;;;2.75;1.83;;;11.10;99.90;;;;;;10060994;28;20143;-62
2022/11/07 00:07:05;;;;;;;2.42;1.17;;;11.10;99.90;;;;;;10069182;28;20037;-60
2022/11/07 00:11:56;;;;;;;3.03;1.30;;;11.20;99.90;;;;;;10066513;28;20064;-61
2022/11/07 00:16:47;;;;;;;2.72;2.10;;;11.30;99.90;;;;;;10067115;28;20010;-59
2022/11/07 00:21:38;;;;;;;6.10;1.65;;;11.30;99.90;;;;;;10065946;28;20520;-61
2022/11/07 00:26:29;;;;;;;1.70;1.13;;;11.40;99.90;;;;;;10068106;28;20108;-60
2022/11/07 00:31:19;;;;;;;2.05;0.90;;;11.30;99.90;;;;;;10069172;28;20029;-60
2022/11/07 00:36:20;;;;;;;2.08;1.20;;;11.30;99.90;;;;;;10069366;28;20021;-61
2022/11/07 00:41:10;;;;;;;2.00;1.00;;;11.30;99.90;;;;;;10065131;28;20025;-62
2022/11/07 00:46:03;;;;;;;1.83;1.10;;;11.30;99.90;;;;;;10070158;28;20031;-60
2022/11/07 00:50:53;;;;;;;1.85;0.95;;;11.30;99.90;;;;;;10065454;28;20030;-61
2022/11/07 00:55:44;;;;;;;2.72;1.35;;;11.30;99.90;;;;;;10094898;28;20143;-62
2022/11/07 01:00:36;;;;;;;1.65;1.27;;;11.40;99.90;;;;;;10116712;28;20046;-61
2022/11/07 01:05:27;;;;;;;3.05;1.60;;;11.30;99.90;;;;;;10112203;28;20676;-61
2022/11/07 01:10:17;;;;;;;1.98;1.30;;;11.30;99.90;;;;;;10104684;28;20072;-61
2022/11/07 01:15:09;;;;;;;1.52;1.02;;;11.30;99.90;;;;;;10100047;28;20029;-63
2022/11/07 01:19:59;;;;;;;2.75;1.40;;;11.30;99.90;;;;;;10098095;28;20865;-61
2022/11/07 01:24:50;;;;;;;5.00;1.40;;;11.40;99.90;;;;;;10120128;28;20021;-64
2022/11/07 01:29:40;;;;;;;2.00;1.20;;;11.30;99.90;;;;;;10107507;28;20036;-64
2022/11/07 01:34:31;;;;;;;4.57;1.40;;;11.30;99.90;;;;;;10117467;28;20027;-64
2022/11/07 01:39:22;;;;;;;1.73;1.13;;;11.30;99.90;;;;;;10104271;28;20629;-62
2022/11/07 01:44:12;;;;;;;3.05;1.23;;;11.30;99.90;;;;;;10114532;28;20033;-64
2022/11/07 01:49:16;;;;;;;2.60;1.33;;;11.30;99.90;;;;;;10098353;28;20485;-65
2022/11/07 01:54:07;;;;;;;2.83;1.58;;;11.40;99.90;;;;;;10120660;28;20040;-65
2022/11/07 01:58:58;;;;;;;2.42;1.35;;;11.40;99.90;;;;;;10114065;28;20090;-66
2022/11/07 02:03:52;;;;;;;3.72;1.20;;;11.50;99.90;;;;;;10100051;28;20029;-64
2022/11/07 02:08:44;;;;;;;1.40;1.08;;;11.40;99.90;;;;;;10101388;28;20071;-65
2022/11/07 02:13:35;;;;;;;3.83;1.20;;;11.50;99.90;;;;;;10107463;28;20523;-62
2022/11/07 02:18:27;;;;;;;2.67;1.23;;;11.50;99.90;;;;;;10105936;28;20013;-60
2022/11/07 02:23:32;;;;;;;7.57;1.30;;;11.40;99.90;;;;;;10105204;28;20420;-61
2022/11/07 02:28:27;;;;;;;2.38;1.33;;;11.30;99.90;;;;;;10111692;28;20064;-62
2022/11/07 02:33:19;;;;;;;1.95;1.42;;;11.30;99.90;;;;;;10107880;28;20036;-63
2022/11/07 02:38:19;;;;;;;1.17;0.95;;;11.30;99.90;;;;;;10117925;28;20028;-64
2022/11/07 02:43:12;;;;;;;2.72;1.95;;;11.40;99.90;;;;;;10110886;28;20025;-63
2022/11/07 02:48:03;;;;;;;3.05;1.40;;;11.40;99.90;;;;;;10120135;28;20047;-64
2022/11/07 02:52:53;;;;;;;2.70;1.52;;;11.50;99.90;;;;;;10113522;28;20054;-64
2022/11/07 02:57:44;;;;;;;3.38;1.38;;;11.50;99.90;;;;;;10112679;28;20052;-60
2022/11/07 03:02:35;;;;;;;2.35;1.58;;;11.60;99.90;;;;;;10109720;28;20024;-62
2022/11/07 03:07:25;;;;;;;1.52;1.20;;;11.60;99.90;;;;;;10105111;28;20028;-60
2022/11/07 03:12:16;;;;;;;2.72;1.55;;;11.60;99.90;;;;;;10118529;28;20024;-62
2022/11/07 03:17:07;;;;;;;2.33;1.63;;;11.60;99.90;;;;;;10098081;28;20040;-63
2022/11/07 03:21:58;;;;;;;1.40;1.20;;;11.60;99.90;;;;;;10110412;28;20151;-63
2022/11/07 03:26:49;;;;;;;3.28;1.60;;;11.70;99.90;;;;;;10118310;28;20048;-61
2022/11/07 03:31:39;;;;;;;2.55;1.60;;;11.70;99.90;;;;;;10125231;28;20025;-61
2022/11/07 03:36:30;;;;;;;2.47;1.40;;;11.70;99.90;;;;;;10105704;28;20056;-62
2022/11/07 03:41:21;;;;;;;2.70;1.35;;;11.70;99.90;;;;;;10101797;28;20086;-63
2022/11/07 03:46:15;;;;;;;1.83;1.30;;;11.70;99.90;;;;;;10104746;28;20418;-61
2022/11/07 03:51:07;;;;;;;3.67;1.67;;;11.70;99.90;;;;;;10103439;28;20029;-60
2022/11/07 03:55:58;;;;;;;2.65;1.08;;;11.80;99.90;;;;;;10096530;28;20115;-60
2022/11/07 04:00:48;;;;;;;3.03;1.23;;;11.80;99.90;;;;;;10096223;28;20671;-61
2022/11/07 04:05:39;;;;;;;1.40;1.08;;;11.80;99.90;;;;;;10078954;28;20518;-62
2022/11/07 04:10:30;;;;;;;3.08;1.08;;;11.80;99.90;;;;;;10090658;28;20059;-61
2022/11/07 04:20:29;;;;;;;2.45;1.42;;;11.80;99.90;;;;;;10124909;28;20048;-61
2022/11/07 04:27:41;;;;;;;2.08;1.38;;;11.90;99.90;;;;;;10118285;28;20024;-62
2022/11/07 04:30:31;;;;;;;3.15;1.95;;;11.90;99.90;;;;;;10113495;28;20517;-63
2022/11/07 04:35:24;;;;;;;4.00;1.23;;;11.90;99.90;;;;;;10105943;28;20031;-63
2022/11/07 04:40:15;;;;;;;2.20;1.17;;;11.90;99.90;;;;;;10107078;28;20486;-62
2022/11/07 04:45:06;;;;;;;2.17;1.23;;;11.90;99.90;;;;;;10114832;28;20460;-61
2022/11/07 04:49:57;;;;;;;1.95;1.48;;;12.00;99.90;;;;;;10091664;28;20037;-61
2022/11/07 04:54:48;;;;;;;3.13;1.23;;;12.00;99.90;;;;;;10137021;22;20056;-69
2022/11/07 04:59:38;;;;;;;4.10;1.20;;;12.00;99.90;;;;;;10122823;28;20082;-70
2022/11/07 05:04:29;;;;;;;2.55;1.27;;;12.00;99.90;;;;;;10113694;28;20078;-72
2022/11/07 05:09:20;;;;;;;2.63;1.95;;;12.00;99.90;;;;;;10125336;28;20043;-66
2022/11/07 05:14:11;;;;;;;2.30;1.15;;;12.10;99.90;;;;;;10123856;28;20052;-70
2022/11/07 05:19:02;;;;;;;2.90;1.40;;;12.00;99.90;;;;;;10123202;28;20028;-71
2022/11/07 05:23:53;;;;;;;4.47;1.30;;;12.00;99.90;;;;;;10112393;28;20387;-71
2022/11/07 05:28:44;;;;;;;1.27;1.08;;;11.90;99.90;;;;;;10113876;28;20047;-70
2022/11/07 05:33:35;;;;;;;2.30;1.10;;;11.80;99.90;;;;;;10117679;28;20036;-69
2022/11/07 05:38:25;;;;;;;1.88;1.45;;;11.70;99.90;;;;;;10111012;28;20383;-67
2022/11/07 05:43:16;;;;;;;3.58;1.67;;;11.60;99.90;;;;;;10114659;28;20170;-67
2022/11/07 05:48:09;;;;;;;2.22;0.90;;;11.60;99.90;;;;;;10101576;28;20036;-68
2022/11/07 05:53:00;;;;;;;1.73;1.20;;;11.50;99.90;;;;;;10113074;28;20109;-70
2022/11/07 05:57:51;;;;;;;3.97;1.50;;;11.50;99.90;;;;;;10120132;28;20035;-67
2022/11/07 06:02:42;;;;;;;2.47;1.42;;;11.50;99.90;;;;;;10114748;28;20036;-69
2022/11/07 06:07:37;;;;;;;1.55;1.20;;;11.50;99.90;;;;;;10111115;28;20040;-68
2022/11/07 06:12:28;;;;;;;8.47;1.67;;;11.40;99.90;;;;;;10115268;28;20089;-67
2022/11/07 06:17:19;;;;;;;6.55;3.08;;;11.40;99.90;;;;;;10127022;28;20074;-70
2022/11/07 06:22:09;;;;;;;3.10;1.58;;;11.40;99.90;;;;;;10131614;28;20033;-69
2022/11/07 06:27:00;;;;;;;1.25;0.90;;;11.30;99.90;;;;;;10136435;28;20391;-68
2022/11/07 06:31:51;;;;;;;2.05;1.25;;;11.30;99.90;;;;;;10126961;28;20512;-69
2022/11/07 06:36:41;;;;;;;1.85;1.10;;;11.30;99.90;;;;;;10126553;28;20020;-67
2022/11/07 06:41:32;;;;;;;3.17;1.25;;;11.30;99.90;;;;;;10123681;28;20124;-70
2022/11/07 06:46:24;;;;;;;1.77;1.10;;;11.30;99.90;;;;;;10120872;28;20074;-66
2022/11/07 06:51:14;;;;;;;4.93;1.33;;;11.30;99.90;;;;;;10119536;28;20102;-68
2022/11/07 06:56:07;;;;;;;1.80;1.00;;;11.40;99.90;;;;;;10119150;28;20028;-68
2022/11/07 07:01:02;;;;;;;1.63;1.00;;;11.50;99.90;;;;;;10112884;28;20036;-69
2022/11/07 07:05:52;;;;;;;1.88;1.25;;;11.70;99.90;;;;;;10115285;28;20441;-70
2022/11/07 07:10:44;;;;;;;2.40;1.10;;;11.70;99.90;;;;;;10113180;28;20044;-66
2022/11/07 07:15:35;;;;;;;1.92;1.20;;;11.80;99.90;;;;;;10120970;28;20025;-68
2022/11/07 07:20:26;;;;;;;2.53;1.33;;;11.80;99.90;;;;;;10124123;28;20024;-70
2022/11/07 07:25:17;;;;;;;2.42;1.08;;;11.90;99.90;;;;;;10122900;28;20035;-69
2022/11/07 07:30:09;;;;;;;4.00;1.35;;;12.00;99.90;;;;;;10117800;28;20040;-66
2022/11/07 07:35:00;;;;;;;1.90;1.00;;;12.10;99.90;;;;;;10116630;28;20079;-65
2022/11/07 07:39:51;;;;;;;3.67;1.20;;;12.10;99.90;;;;;;10111643;28;20028;-66
2022/11/07 07:44:42;;;;;;;2.35;1.73;;;12.20;99.90;;;;;;10107067;28;20452;-61
2022/11/07 07:49:32;;;;;;;2.15;1.40;;;12.30;99.90;;;;;;10109865;28;20066;-61
2022/11/07 07:54:23;;;;;;;4.68;1.38;;;12.30;99.90;;;;;;10115347;28;20068;-61
2022/11/07 07:59:14;;;;;;;1.25;0.93;;;12.40;99.90;;;;;;10110566;28;20050;-62
2022/11/07 08:04:05;;;;;;;1.90;1.02;;;12.50;99.90;;;;;;10108225;28;20032;-61
2022/11/07 08:08:55;;;;;;;2.63;1.20;;;12.60;99.90;;;;;;10109528;28;20020;-62
2022/11/07 08:13:46;;;;;;;1.73;1.00;;;12.70;99.90;;;;;;10116227;28;20016;-61
2022/11/07 08:18:38;;;;;;;3.70;1.85;;;12.80;99.90;;;;;;10098549;28;20548;-65
2022/11/07 08:23:30;;;;;;;3.15;1.20;;;12.90;99.90;;;;;;10107759;28;20029;-63
2022/11/07 08:28:22;;;;;;;3.20;1.63;;;13.00;99.90;;;;;;10106588;28;20081;-62
2022/11/07 08:33:13;;;;;;;4.03;1.20;;;13.10;99.90;;;;;;10104442;28;20029;-61
2022/11/07 08:38:03;;;;;;;4.55;1.30;;;13.10;99.90;;;;;;10111930;28;20020;-62
2022/11/07 08:43:00;;;;;;;2.25;1.17;;;13.00;99.90;;;;;;10106445;28;20051;-62
2022/11/07 08:47:56;;;;;;;5.70;1.73;;;13.10;99.90;;;;;;10109600;28;20043;-62
2022/11/07 08:52:46;;;;;;;6.07;1.63;;;13.20;99.90;;;;;;10114926;28;20059;-62
2022/11/07 08:57:37;;;;;;;2.53;1.58;;;13.30;99.90;;;;;;10101291;28;20025;-63
2022/11/07 09:02:28;;;;;;;2.58;0.95;;;13.40;99.90;;;;;;10122863;28;20039;-62
2022/11/07 09:07:19;;;;;;;5.15;1.38;;;13.30;99.90;;;;;;10105357;28;20024;-63
2022/11/07 09:12:10;;;;;;;2.17;1.10;;;13.40;99.90;;;;;;10123068;28;20037;-62
2022/11/07 09:17:00;;;;;;;1.83;1.13;;;13.40;99.90;;;;;;10111873;28;20024;-62
2022/11/07 09:21:51;;;;;;;4.03;1.50;;;13.50;99.90;;;;;;10119296;28;20027;-60
2022/11/07 09:26:42;;;;;;;3.78;1.48;;;13.60;99.90;;;;;;10093927;28;20047;-65
2022/11/07 09:31:32;;;;;;;6.72;1.52;;;13.70;99.90;;;;;;10124265;28;20094;-59
2022/11/07 09:36:23;;;;;;;3.53;1.35;;;13.80;99.90;;;;;;10126635;28;20544;-61
2022/11/07 09:41:58;;;;;;;3.75;1.15;;;14.00;99.90;;;;;;10128501;28;20040;-63
2022/11/07 09:47:17;;;;;;;2.67;1.00;;;14.20;99.90;;;;;;9968892;28;20049;-61
2022/11/07 09:52:27;;;;;;;3.83;1.38;;;14.30;99.90;;;;;;10096425;28;20506;-59
2022/11/07 09:57:19;;;;;;;4.60;1.30;;;14.40;99.90;;;;;;10126488;28;20025;-62
2022/11/07 10:02:16;;;;;;;3.78;1.17;;;14.50;99.90;;;;;;10125844;28;20477;-60
2022/11/07 10:07:23;;;;;;;4.38;1.23;;;14.50;99.90;;;;;;10114568;28;20028;-60
2022/11/07 10:12:51;;;;;;;3.35;1.55;;;14.40;99.90;;;;;;10110028;28;20079;-61
2022/11/07 10:18:02;;;;;;;4.00;1.25;;;14.50;99.90;;;;;;10127531;28;20067;-62
2022/11/07 10:23:18;;;;;;;1.98;1.08;;;14.70;99.90;;;;;;10123853;28;20246;-62
2022/11/07 10:28:09;;;;;;;3.03;1.38;;;14.90;99.90;;;;;;10123892;28;20676;-63
2022/11/07 10:33:40;;;;;;;1.42;1.00;;;14.90;99.90;;;;;;10108539;28;20028;-64
2022/11/07 10:38:34;;;;;;;2.50;1.52;;;15.10;99.90;;;;;;10117936;28;20064;-63
2022/11/07 10:43:32;;;;;;;2.78;0.98;;;15.40;99.90;;;;;;10098977;28;20020;-65
2022/11/07 10:48:24;;;;;;;3.25;1.48;;;15.40;99.90;;;;;;10125720;22;20044;-63
2022/11/07 10:53:19;;;;;;;1.42;0.98;;;15.30;99.90;;;;;;10121659;28;20142;-64
2022/11/07 10:58:25;;;;;;;2.88;0.95;;;15.30;99.90;;;;;;10119523;28;20482;-63
2022/11/07 11:03:25;;;;;;;2.65;1.30;;;15.30;99.90;;;;;;10116961;28;20052;-63
2022/11/07 11:08:21;;;;;;;3.38;0.82;;;15.30;99.90;;;;;;10109203;28;20100;-63
2022/11/07 11:13:33;;;;;;;5.03;1.85;;;15.40;99.90;;;;;;10112835;28;20028;-65
2022/11/07 11:18:24;;;;;;;6.15;1.30;;;15.50;99.90;;;;;;10105861;28;20116;-64
2022/11/07 11:23:20;;;;;;;3.88;0.80;;;15.50;99.90;;;;;;10114952;28;20033;-64
2022/11/07 11:28:14;;;;;;;;;;;15.60;99.90;;;;;;10091184;28;20064;-65
2022/11/07 11:33:12;;;;;;;2.40;1.67;;;15.60;99.90;;;;;;10108616;28;19957;-65
2022/11/07 11:38:22;;;;;;;4.35;1.85;;;15.60;99.90;;;;;;10118178;28;20085;-65
2022/11/07 11:43:23;;;;;;;2.45;0.88;;;15.60;99.90;;;;;;10114072;28;20219;-66
2022/11/07 11:48:23;;;;;;;2.30;1.17;;;15.60;99.90;;;;;;10107368;28;20049;-66
2022/11/07 11:53:16;;;;;;;1.48;1.00;;;15.70;99.90;;;;;;10122562;28;20063;-67
2022/11/07 11:58:52;;;;;;;2.67;0.90;;;15.80;99.90;;;;;;10118010;28;20591;-66
2022/11/07 12:04:10;;;;;;;3.55;1.10;;;15.80;99.90;;;;;;10120135;28;20086;-68
2022/11/07 12:09:23;;;;;;;2.92;1.20;;;15.90;99.90;;;;;;10111266;28;20055;-64
2022/11/07 12:14:42;;;;;;;2.95;1.10;;;16.20;99.90;;;;;;10120273;28;20102;-66
2022/11/07 12:19:43;;;;;;;2.33;1.17;;;16.30;99.90;;;;;;10120550;28;20032;-67
2022/11/07 12:24:51;;;;;;;4.25;1.55;;;16.30;99.90;;;;;;10116067;28;20091;-68
2022/11/07 12:30:14;;;;;;;3.08;1.20;;;16.30;99.90;;;;;;10107528;28;20458;-66
2022/11/07 12:35:36;;;;;;;4.90;1.60;;;16.50;99.90;;;;;;10093919;28;20041;-65
2022/11/07 12:40:42;;;;;;;4.13;1.20;;;16.50;99.90;;;;;;10096543;28;20526;-68
2022/11/07 12:45:42;;;;;;;3.22;0.82;;;16.30;99.90;;;;;;10094591;28;20104;-67
2022/11/07 12:51:07;;;;;;;3.75;1.15;;;16.20;99.90;;;;;;10093524;28;20090;-67
2022/11/07 12:56:11;;;;;;;2.65;1.20;;;16.50;99.90;;;;;;10091319;28;20241;-66
2022/11/07 13:01:04;;;;;;;2.22;0.77;;;16.80;99.90;;;;;;10082213;28;20374;-66
2022/11/07 13:06:30;;;;;;;1.83;0.85;;;16.70;99.90;;;;;;10089876;28;20479;-66
2022/11/07 13:11:43;;;;;;;2.50;0.90;;;16.50;99.90;;;;;;10052266;28;20045;-66
2022/11/07 13:16:35;;;;;;;3.42;0.80;;;16.30;99.90;;;;;;10093232;28;20051;-66
2022/11/07 13:21:26;;;;;;;2.10;0.90;;;16.20;99.90;;;;;;10077929;28;20021;-65
2022/11/07 13:26:26;;;;;;;4.13;0.80;;;16.40;99.90;;;;;;10091763;28;20028;-66
2022/11/07 13:31:37;;;;;;;3.70;1.30;;;16.30;99.90;;;;;;10102153;28;20123;-65
2022/11/07 13:36:32;;;;;;;2.40;0.98;;;16.10;99.90;;;;;;10122700;28;20028;-67
2022/11/07 13:41:23;;;;;;;3.20;0.95;;;16.00;99.90;;;;;;10130865;28;20043;-64
2022/11/07 13:46:24;;;;;;;3.53;1.02;;;16.00;99.90;;;;;;10114944;28;20410;-65
2022/11/07 13:51:25;;;;;;;2.38;1.30;;;16.00;99.90;;;;;;10094878;28;20564;-65
2022/11/07 13:56:45;;;;;;;5.95;1.73;;;16.00;99.90;;;;;;10121829;28;20037;-65
2022/11/07 14:01:43;;;;;;;2.10;1.40;;;16.00;99.90;;;;;;10130513;28;20024;-65
2022/11/07 14:06:35;;;;;;;2.08;1.20;;;15.90;99.90;;;;;;10108677;28;20029;-64
2022/11/07 14:11:27;;;;;;;3.83;1.25;;;15.80;99.90;;;;;;10118542;28;20021;-65
2022/11/07 14:16:22;;;;;;;4.85;1.27;;;15.90;99.90;;;;;;10094335;28;20040;-66
2022/11/07 14:21:27;;;;;;;4.37;2.50;;;15.80;99.90;;;;;;10091242;28;20525;-65
2022/11/07 14:26:29;;;;;;;4.18;1.33;;;15.80;99.90;;;;;;10105966;28;20063;-71
2022/11/07 14:31:28;;;;;;;3.25;1.00;;;15.80;99.90;;;;;;10119855;22;20033;-62
2022/11/07 14:36:19;;;;;;;4.97;1.10;;;15.80;99.90;;;;;;10071922;28;20033;-63
2022/11/07 14:41:11;;;;;;;2.78;1.27;;;15.80;99.90;;;;;;10085094;28;20028;-62
2022/11/07 14:46:07;;;;;;;4.80;1.33;;;15.90;99.90;;;;;;10071558;28;20028;-61
2022/11/07 14:50:58;;;;;;;4.47;1.20;;;15.90;99.90;;;;;;10077447;28;20238;-64
2022/11/07 14:55:53;;;;;;;4.80;1.40;;;15.90;99.90;;;;;;10082872;28;20391;-63
2022/11/07 15:00:55;;;;;;;2.63;1.30;;;15.90;99.90;;;;;;10065867;28;20365;-61
2022/11/07 15:05:46;;;;;;;2.25;1.00;;;15.90;99.90;;;;;;10073498;28;20051;-61
2022/11/07 15:10:38;;;;;;;1.67;1.10;;;15.80;99.90;;;;;;10083588;28;20045;-63
2022/11/07 15:15:34;;;;;;;4.80;1.55;;;15.80;99.90;;;;;;10078048;28;20021;-70
2022/11/07 15:20:37;;;;;;;2.65;1.20;;;15.80;99.90;;;;;;10083054;28;20078;-62
2022/11/07 15:25:40;;;;;;;4.53;1.40;;;15.70;99.90;;;;;;10079720;28;20033;-61
2022/11/07 15:30:32;;;;;;;2.45;0.82;;;15.60;99.90;;;;;;10069633;28;20069;-63
2022/11/07 15:35:23;;;;;;;2.83;0.95;;;15.70;99.90;;;;;;10080080;28;20072;-63
2022/11/07 15:40:15;;;;;;;2.15;1.10;;;15.60;99.90;;;;;;10072405;28;20069;-64
2022/11/07 15:45:06;;;;;;;2.63;1.60;;;15.50;99.90;;;;;;10071889;28;20076;-64
2022/11/07 15:49:57;;;;;;;3.65;2.08;;;15.50;99.90;;;;;;10066023;28;20145;-63
2022/11/07 15:54:48;;;;;;;3.53;1.35;;;15.50;99.90;;;;;;10074922;28;20541;-62
2022/11/07 15:59:38;;;;;;;3.95;1.83;;;15.40;99.90;;;;;;10065111;28;20040;-61
2022/11/07 16:04:29;;;;;;;4.55;1.98;;;15.40;99.90;;;;;;10062225;28;20025;-61
2022/11/07 16:09:21;;;;;;;2.08;1.52;;;15.40;99.90;;;;;;10076886;28;20048;-63
2022/11/07 16:14:17;;;;;;;6.50;1.60;;;15.40;99.90;;;;;;10079479;28;20033;-63
2022/11/07 16:19:19;;;;;;;3.50;2.15;;;15.30;99.90;;;;;;10077654;28;20057;-61
2022/11/07 16:24:10;;;;;;;5.18;2.28;;;15.20;99.90;;;;;;10072228;28;20032;-61
2022/11/07 16:29:00;;;;;;;3.38;1.50;;;15.00;99.90;;;;;;10078894;28;20128;-61
2022/11/07 16:33:52;;;;;;;3.33;1.65;;;15.00;99.90;;;;;;10068389;28;20045;-61
2022/11/07 16:38:43;;;;;;;4.05;1.85;;;14.90;99.90;;;;;;10081015;28;20029;-60
2022/11/07 16:43:36;;;;;;;4.20;1.80;;;14.90;99.90;;;;;;10073846;28;20120;-60
2022/11/07 16:48:28;;;;;;;4.47;1.50;;;14.90;99.90;;;;;;10080684;28;20308;-60
2022/11/07 16:53:20;;;;;;;4.55;2.17;;;14.90;99.90;;;;;;10069522;28;20025;-61
2022/11/07 16:58:23;;;;;;;2.42;1.70;;;14.90;99.90;;;;;;10069471;28;20067;-62
2022/11/07 17:03:13;;;;;;;2.40;2.15;;;14.80;99.90;;;;;;10063753;28;20400;-62
2022/11/07 17:08:36;;;;;;;4.07;2.50;;;14.80;99.90;;;;;;10059520;28;20043;-62
2022/11/07 17:13:27;;;;;;;4.13;2.15;;;14.70;99.90;;;;;;10060267;28;20084;-62
2022/11/07 17:18:23;;;;;;;5.18;2.55;;;14.60;99.90;;;;;;10055917;28;20026;-63
2022/11/07 17:23:14;;;;;;;6.95;2.28;;;14.50;99.90;;;;;;10057052;28;20140;-63
2022/11/07 17:28:06;;;;;;;4.65;2.30;;;14.40;99.90;;;;;;10059577;28;20488;-66
2022/11/07 17:32:56;;;;;;;5.90;2.67;;;14.40;99.90;;;;;;10070740;28;20412;-65
2022/11/07 17:37:47;;;;;;;4.47;2.25;;;14.40;99.90;;;;;;10064103;28;20038;-65
2022/11/07 17:42:38;;;;;;;3.35;2.72;;;14.30;99.90;;;;;;10090918;28;20051;-63
2022/11/07 17:47:31;;;;;;;3.50;2.17;;;14.30;99.90;;;;;;10053157;28;20316;-62
2022/11/07 17:52:21;;;;;;;4.55;1.90;;;14.30;99.90;;;;;;10061292;28;20513;-61
2022/11/07 17:57:12;;;;;;;5.13;3.25;;;14.30;99.90;;;;;;10082303;28;20039;-65
2022/11/07 18:02:03;;;;;;;3.13;1.92;;;14.30;99.90;;;;;;10078951;28;20408;-67
2022/11/07 18:06:54;;;;;;;6.20;2.90;;;14.20;99.90;;;;;;10068407;28;20116;-65
2022/11/07 18:11:45;;;;;;;9.35;2.65;;;14.20;99.90;;;;;;10073331;28;20567;-63
2022/11/07 18:16:36;;;;;;;3.97;2.83;;;14.20;99.90;;;;;;10073653;28;20383;-64
2022/11/07 18:21:28;;;;;;;4.65;2.53;;;14.10;99.90;;;;;;10079256;28;20067;-64
2022/11/07 18:26:26;;;;;;;5.85;2.10;;;14.20;99.90;;;;;;10083520;28;20030;-66
2022/11/07 18:31:19;;;;;;;4.45;1.85;;;14.20;99.90;;;;;;10085620;28;20049;-64
2022/11/07 18:36:12;;;;;;;2.55;1.85;;;14.10;99.90;;;;;;10082493;28;20378;-67
2022/11/07 18:41:09;;;;;;;4.22;3.08;;;14.00;99.90;;;;;;10085146;28;20018;-66
2022/11/07 18:46:00;;;;;;;3.30;1.90;;;14.00;99.90;;;;;;10067512;28;20484;-64
2022/11/07 18:50:51;;;;;;;5.78;2.38;;;13.90;99.90;;;;;;10075483;28;20041;-65
2022/11/07 18:55:42;;;;;;;8.77;2.78;;;13.80;99.90;;;;;;10079069;28;20471;-65
2022/11/07 19:00:33;;;;;;;13.80;2.90;;;13.80;99.90;;;;;;10069711;28;20245;-64
2022/11/07 19:05:24;;;;;;;5.63;2.55;;;13.80;99.90;;;;;;10075615;28;20022;-66
2022/11/07 19:10:15;;;;;;;4.97;3.10;;;13.80;99.90;;;;;;10060148;28;20511;-65
2022/11/07 19:15:07;;;;;;;4.00;2.95;;;13.70;99.90;;;;;;10075449;28;20106;-65
2022/11/07 19:19:57;;;;;;;6.13;2.58;;;13.70;99.90;;;;;;10078619;28;20033;-65
2022/11/07 19:24:48;;;;;;;7.22;3.85;;;13.60;99.90;;;;;;10077011;28;20017;-64
2022/11/07 19:29:39;;;;;;;6.30;3.78;;;13.60;99.90;;;;;;10090537;28;20480;-67
2022/11/07 19:34:30;;;;;;;9.00;4.03;;;13.70;99.90;;;;;;10094705;28;20068;-68
2022/11/07 19:39:21;;;;;;;7.88;4.07;;;13.80;99.90;;;;;;10087648;28;20040;-64
2022/11/07 19:44:11;;;;;;;5.80;3.45;;;13.90;99.90;;;;;;10076949;28;20048;-67
2022/11/07 19:49:02;;;;;;;5.88;2.63;;;13.90;99.90;;;;;;10072792;28;20094;-66
2022/11/07 19:53:57;;;;;;;5.60;2.60;;;13.90;99.90;;;;;;10094654;28;20056;-66
2022/11/07 19:58:48;;;;;;;6.90;2.72;;;14.00;99.90;;;;;;10094965;28;20033;-66
2022/11/07 20:03:45;;;;;;;6.28;3.05;;;14.00;99.90;;;;;;10095252;28;20120;-66
2022/11/07 20:08:36;;;;;;;5.05;2.95;;;14.00;99.90;;;;;;10084650;28;20479;-66
2022/11/07 20:13:27;;;;;;;5.38;2.78;;;14.10;99.90;;;;;;10081541;28;20472;-66
2022/11/07 20:18:18;;;;;;;5.65;3.05;;;14.00;99.90;;;;;;10069953;28;20032;-69
2022/11/07 20:23:08;;;;;;;6.82;2.78;;;13.90;99.90;;;;;;10065674;28;20483;-66
2022/11/07 20:27:59;;;;;;;5.78;2.72;;;13.90;99.90;;;;;;10079352;28;20456;-66
2022/11/07 20:32:50;;;;;;;5.95;2.95;;;13.80;99.90;;;;;;10080793;28;20055;-68
2022/11/07 20:37:40;;;;;;;5.65;2.30;;;13.70;99.90;;;;;;10080329;28;20067;-67
2022/11/07 20:42:31;;;;;;;5.35;3.15;;;13.60;99.90;;;;;;10079881;28;20033;-65
2022/11/07 20:47:22;;;;;;;8.02;2.67;;;13.50;99.90;;;;;;10067823;28;20579;-68
2022/11/07 20:52:13;;;;;;;5.38;2.30;;;13.40;99.90;;;;;;10069922;28;20507;-66
2022/11/07 20:57:04;;;;;;;6.65;3.33;;;13.30;99.90;;;;;;10074477;28;20036;-66
2022/11/07 21:01:55;;;;;;;4.60;2.88;;;13.20;99.90;;;;;;10081682;28;20058;-65
2022/11/07 21:06:45;;;;;;;5.85;3.08;;;13.20;99.90;;;;;;10061891;28;20472;-64
2022/11/07 21:11:36;;;;;;;4.97;2.45;;;13.20;99.90;;;;;;10065528;28;20045;-64
2022/11/07 21:16:28;;;;;;;3.50;2.35;;;13.10;99.90;;;;;;10057277;28;20029;-65
2022/11/07 21:21:22;;;;;;;5.47;2.33;;;13.10;99.90;;;;;;10067520;28;20057;-68
2022/11/07 21:26:35;;;;;;;5.50;2.53;;;13.10;99.90;;;;;;10077601;28;20025;-66
2022/11/07 21:31:28;;;;;;;5.43;3.10;;;13.00;99.90;;;;;;10083130;28;20048;-65
2022/11/07 21:36:23;;;;;;;5.68;2.75;;;13.00;99.90;;;;;;10064553;28;20053;-64
2022/11/07 21:41:14;;;;;;;8.02;3.05;;;13.00;99.90;;;;;;10087761;28;20029;-65
2022/11/07 21:46:12;;;;;;;5.40;3.53;;;13.00;99.90;;;;;;10066463;28;20586;-65
2022/11/07 21:51:07;;;;;;;4.55;2.92;;;12.90;99.90;;;;;;10077695;28;20475;-65
2022/11/07 21:55:59;;;;;;;6.50;2.80;;;12.80;99.90;;;;;;10072947;28;20539;-64
2022/11/07 22:00:49;;;;;;;4.80;2.42;;;12.70;99.90;;;;;;10081202;28;20568;-64
2022/11/07 22:05:40;;;;;;;4.68;2.25;;;12.70;99.90;;;;;;10083912;28;20025;-66
2022/11/07 22:10:30;;;;;;;5.03;2.50;;;12.70;99.90;;;;;;10058426;28;20119;-65
2022/11/07 22:15:21;;;;;;;5.18;2.50;;;12.70;99.90;;;;;;10076511;28;20492;-66
2022/11/07 22:20:12;;;;;;;3.78;2.30;;;12.70;99.90;;;;;;10052634;28;20498;-65
2022/11/07 22:25:03;;;;;;;4.45;2.13;;;12.60;99.90;;;;;;10069402;28;20066;-67
2022/11/07 22:29:53;;;;;;;3.75;2.40;;;12.60;99.90;;;;;;10075935;28;20040;-67
2022/11/07 22:34:44;;;;;;;5.97;2.30;;;12.50;99.90;;;;;;10061999;28;20056;-68
2022/11/07 22:39:35;;;;;;;4.65;2.45;;;12.40;99.90;;;;;;10070116;28;20400;-68
2022/11/07 22:44:25;;;;;;;4.28;2.50;;;12.30;99.90;;;;;;10066721;28;20048;-65
2022/11/07 22:49:16;;;;;;;3.03;1.88;;;12.30;99.90;;;;;;10066828;28;20041;-68
2022/11/07 22:54:10;;;;;;;4.00;2.00;;;12.30;99.90;;;;;;10086400;28;20075;-66
2022/11/07 22:59:03;;;;;;;6.07;2.28;;;12.30;99.90;;;;;;10079360;28;20052;-66
2022/11/07 23:03:54;;;;;;;5.07;2.30;;;12.20;99.90;;;;;;10088214;28;20410;-67
2022/11/07 23:08:46;;;;;;;4.10;2.40;;;12.20;99.90;;;;;;10063346;28;20357;-66
2022/11/07 23:13:38;;;;;;;4.13;2.00;;;12.10;99.90;;;;;;10085389;28;20060;-65
2022/11/07 23:18:29;;;;;;;5.22;2.55;;;12.10;99.90;;;;;;10083380;28;20649;-65
2022/11/07 23:23:20;;;;;;;6.03;2.78;;;12.00;99.90;;;;;;10084709;28;20475;-66
2022/11/07 23:28:11;;;;;;;4.03;2.83;;;12.00;99.90;;;;;;10069821;28;20056;-66
2022/11/07 23:33:01;;;;;;;5.70;3.00;;;11.90;99.90;;;;;;10071835;28;20045;-68
2022/11/07 23:37:52;;;;;;;4.63;2.40;;;11.90;99.90;;;;;;10066239;28;20029;-68
2022/11/07 23:42:42;;;;;;;4.82;2.65;;;11.80;99.90;;;;;;10065385;28;20292;-67
2022/11/07 23:52:43;;;;;;;5.28;2.63;;;11.80;99.90;;;;;;10083006;28;20104;-67
